sensor_id;sensor_type;location;lat;lon;timestamp;P1;P2;P0
76101;PMS7003;64830;46.910;6.354;2023-07-02T00:01:33;14.25;13.00;9.00
76101;PMS7003;64830;46.910;6.354;2023-07-02T00:03:59;13.75;12.50;8.50
76101;PMS7003;64830;46.910;6.354;2023-07-02T00:06:24;10.75;10.75;8.00
76101;PMS7003;64830;46.910;6.354;2023-07-02T00:08:50;11.50;11.50;9.00
76101;PMS7003;64830;46.910;6.354;2023-07-02T00:11:15;13.00;12.50;9.50
76101;PMS7003;64830;46.910;6.354;2023-07-02T00:13:41;18.00;15.00;9.75
76101;PMS7003;64830;46.910;6.354;2023-07-02T00:16:06;17.00;16.50;11.00
76101;PMS7003;64830;46.910;6.354;2023-07-02T00:18:32;14.25;13.25;10.25
76101;PMS7003;64830;46.910;6.354;2023-07-02T00:21:01;13.00;13.00;8.75
76101;PMS7003;64830;46.910;6.354;2023-07-02T00:23:28;12.00;11.50;7.50
76101;PMS7003;64830;46.910;6.354;2023-07-02T00:25:54;15.00;14.25;11.00
76101;PMS7003;64830;46.910;6.354;2023-07-02T00:28:20;15.75;15.75;11.00
76101;PMS7003;64830;46.910;6.354;2023-07-02T00:30:45;15.25;15.25;9.75
76101;PMS7003;64830;46.910;6.354;2023-07-02T00:33:13;14.00;12.25;8.50
76101;PMS7003;64830;46.910;6.354;2023-07-02T00:35:40;12.75;10.00;5.00
76101;PMS7003;64830;46.910;6.354;2023-07-02T00:38:05;14.50;12.75;9.00
76101;PMS7003;64830;46.910;6.354;2023-07-02T00:40:31;14.00;11.25;9.00
76101;PMS7003;64830;46.910;6.354;2023-07-02T00:42:57;14.50;12.50;9.25
76101;PMS7003;64830;46.910;6.354;2023-07-02T00:45:22;17.50;15.00;12.00
76101;PMS7003;64830;46.910;6.354;2023-07-02T00:47:52;14.25;12.50;10.00
76101;PMS7003;64830;46.910;6.354;2023-07-02T00:50:19;15.50;14.00;11.50
76101;PMS7003;64830;46.910;6.354;2023-07-02T00:52:44;16.25;13.50;10.75
76101;PMS7003;64830;46.910;6.354;2023-07-02T00:55:10;17.00;16.25;12.00
76101;PMS7003;64830;46.910;6.354;2023-07-02T00:57:35;13.50;13.00;10.00
76101;PMS7003;64830;46.910;6.354;2023-07-02T01:00:01;15.00;15.00;10.50
76101;PMS7003;64830;46.910;6.354;2023-07-02T01:02:27;12.75;12.00;8.75
76101;PMS7003;64830;46.910;6.354;2023-07-02T01:04:54;14.00;14.00;10.75
76101;PMS7003;64830;46.910;6.354;2023-07-02T01:07:23;13.25;13.25;9.00
76101;PMS7003;64830;46.910;6.354;2023-07-02T01:09:49;14.75;13.25;10.50
76101;PMS7003;64830;46.910;6.354;2023-07-02T01:12:14;17.00;14.00;10.00
76101;PMS7003;64830;46.910;6.354;2023-07-02T01:14:48;16.50;15.00;11.00
76101;PMS7003;64830;46.910;6.354;2023-07-02T01:17:16;17.50;15.00;10.25
76101;PMS7003;64830;46.910;6.354;2023-07-02T01:19:53;11.75;11.75;9.00
76101;PMS7003;64830;46.910;6.354;2023-07-02T01:22:27;14.75;13.25;10.00
76101;PMS7003;64830;46.910;6.354;2023-07-02T01:24:54;14.00;13.75;9.25
76101;PMS7003;64830;46.910;6.354;2023-07-02T01:27:20;15.00;14.00;10.50
76101;PMS7003;64830;46.910;6.354;2023-07-02T01:29:46;18.25;15.50;11.50
76101;PMS7003;64830;46.910;6.354;2023-07-02T01:32:13;17.50;17.00;11.00
76101;PMS7003;64830;46.910;6.354;2023-07-02T01:34:39;15.75;15.75;10.50
76101;PMS7003;64830;46.910;6.354;2023-07-02T01:37:04;16.50;15.75;10.75
76101;PMS7003;64830;46.910;6.354;2023-07-02T01:39:31;21.00;18.00;10.75
76101;PMS7003;64830;46.910;6.354;2023-07-02T01:44:35;19.00;16.75;11.00
76101;PMS7003;64830;46.910;6.354;2023-07-02T01:47:01;12.75;12.75;9.00
76101;PMS7003;64830;46.910;6.354;2023-07-02T01:49:26;16.00;15.50;11.00
76101;PMS7003;64830;46.910;6.354;2023-07-02T01:51:52;20.75;20.75;12.00
76101;PMS7003;64830;46.910;6.354;2023-07-02T01:54:20;11.25;11.25;6.50
76101;PMS7003;64830;46.910;6.354;2023-07-02T01:56:46;18.75;16.25;11.50
76101;PMS7003;64830;46.910;6.354;2023-07-02T01:59:12;17.50;17.00;10.50
76101;PMS7003;64830;46.910;6.354;2023-07-02T02:01:38;14.50;13.50;9.25
76101;PMS7003;64830;46.910;6.354;2023-07-02T02:04:07;14.25;14.00;9.50
76101;PMS7003;64830;46.910;6.354;2023-07-02T02:06:33;17.50;14.75;9.75
76101;PMS7003;64830;46.910;6.354;2023-07-02T02:08:59;16.50;16.50;11.00
76101;PMS7003;64830;46.910;6.354;2023-07-02T02:11:25;18.00;15.00;11.75
76101;PMS7003;64830;46.910;6.354;2023-07-02T02:13:50;18.25;15.00;11.00
76101;PMS7003;64830;46.910;6.354;2023-07-02T02:16:16;16.50;15.00;11.00
76101;PMS7003;64830;46.910;6.354;2023-07-02T02:18:41;22.00;16.75;11.75
76101;PMS7003;64830;46.910;6.354;2023-07-02T02:21:07;19.00;17.75;11.50
76101;PMS7003;64830;46.910;6.354;2023-07-02T02:23:42;15.50;14.00;10.00
76101;PMS7003;64830;46.910;6.354;2023-07-02T02:26:07;16.75;15.75;10.50
76101;PMS7003;64830;46.910;6.354;2023-07-02T02:28:32;18.75;15.25;12.00
76101;PMS7003;64830;46.910;6.354;2023-07-02T02:30:58;16.25;15.25;10.00
76101;PMS7003;64830;46.910;6.354;2023-07-02T02:33:23;14.00;14.00;9.00
76101;PMS7003;64830;46.910;6.354;2023-07-02T02:35:52;18.50;17.25;13.00
76101;PMS7003;64830;46.910;6.354;2023-07-02T02:38:17;16.75;16.00;10.00
76101;PMS7003;64830;46.910;6.354;2023-07-02T02:40:43;17.50;17.50;12.50
76101;PMS7003;64830;46.910;6.354;2023-07-02T02:43:08;19.75;17.75;12.50
76101;PMS7003;64830;46.910;6.354;2023-07-02T02:45:34;15.50;14.00;10.00
76101;PMS7003;64830;46.910;6.354;2023-07-02T02:47:59;23.25;17.50;11.75
76101;PMS7003;64830;46.910;6.354;2023-07-02T02:50:25;17.50;17.25;11.00
76101;PMS7003;64830;46.910;6.354;2023-07-02T02:52:50;22.00;19.50;13.50
76101;PMS7003;64830;46.910;6.354;2023-07-02T02:55:15;21.25;20.00;12.25
76101;PMS7003;64830;46.910;6.354;2023-07-02T02:57:41;21.50;15.50;10.25
76101;PMS7003;64830;46.910;6.354;2023-07-02T03:00:08;19.00;14.50;11.00
76101;PMS7003;64830;46.910;6.354;2023-07-02T03:02:34;24.25;21.75;15.00
76101;PMS7003;64830;46.910;6.354;2023-07-02T03:05:00;18.75;17.75;11.25
76101;PMS7003;64830;46.910;6.354;2023-07-02T03:07:31;21.25;19.25;12.00
76101;PMS7003;64830;46.910;6.354;2023-07-02T03:09:56;18.50;16.00;11.00
76101;PMS7003;64830;46.910;6.354;2023-07-02T03:12:22;25.75;20.75;13.00
76101;PMS7003;64830;46.910;6.354;2023-07-02T03:14:48;20.50;20.50;11.25
76101;PMS7003;64830;46.910;6.354;2023-07-02T03:17:18;20.75;17.75;12.00
76101;PMS7003;64830;46.910;6.354;2023-07-02T03:19:44;22.50;18.75;10.00
76101;PMS7003;64830;46.910;6.354;2023-07-02T03:22:10;17.00;16.00;11.50
76101;PMS7003;64830;46.910;6.354;2023-07-02T03:24:35;17.00;15.25;11.50
76101;PMS7003;64830;46.910;6.354;2023-07-02T03:27:00;22.50;19.00;12.00
76101;PMS7003;64830;46.910;6.354;2023-07-02T03:29:26;20.25;19.50;11.25
76101;PMS7003;64830;46.910;6.354;2023-07-02T03:31:52;24.00;20.75;11.75
76101;PMS7003;64830;46.910;6.354;2023-07-02T03:34:17;18.75;18.75;13.50
76101;PMS7003;64830;46.910;6.354;2023-07-02T03:36:43;24.00;21.50;14.25
76101;PMS7003;64830;46.910;6.354;2023-07-02T03:39:09;21.25;18.75;11.00
76101;PMS7003;64830;46.910;6.354;2023-07-02T03:41:35;20.50;17.50;12.75
76101;PMS7003;64830;46.910;6.354;2023-07-02T03:44:00;21.25;19.25;12.25
76101;PMS7003;64830;46.910;6.354;2023-07-02T03:46:26;19.75;19.25;12.00
76101;PMS7003;64830;46.910;6.354;2023-07-02T03:48:51;16.50;15.50;11.75
76101;PMS7003;64830;46.910;6.354;2023-07-02T03:51:18;19.25;18.25;10.75
76101;PMS7003;64830;46.910;6.354;2023-07-02T03:53:43;18.75;17.50;12.50
76101;PMS7003;64830;46.910;6.354;2023-07-02T03:56:09;19.75;17.75;12.00
76101;PMS7003;64830;46.910;6.354;2023-07-02T03:58:35;19.50;18.50;11.25
76101;PMS7003;64830;46.910;6.354;2023-07-02T04:01:00;16.25;13.00;8.75
76101;PMS7003;64830;46.910;6.354;2023-07-02T04:03:26;23.50;21.00;10.50
76101;PMS7003;64830;46.910;6.354;2023-07-02T04:05:51;15.00;15.00;10.00
76101;PMS7003;64830;46.910;6.354;2023-07-02T04:08:16;18.75;18.50;12.00
76101;PMS7003;64830;46.910;6.354;2023-07-02T04:10:43;23.50;18.75;11.00
76101;PMS7003;64830;46.910;6.354;2023-07-02T04:13:08;19.50;18.50;11.75
76101;PMS7003;64830;46.910;6.354;2023-07-02T04:15:35;19.50;16.75;11.50
76101;PMS7003;64830;46.910;6.354;2023-07-02T04:18:00;19.75;19.50;13.00
76101;PMS7003;64830;46.910;6.354;2023-07-02T04:20:26;15.75;14.25;10.00
76101;PMS7003;64830;46.910;6.354;2023-07-02T04:22:53;22.00;19.50;12.00
76101;PMS7003;64830;46.910;6.354;2023-07-02T04:25:19;19.75;15.75;10.00
76101;PMS7003;64830;46.910;6.354;2023-07-02T04:27:44;17.50;15.25;10.25
76101;PMS7003;64830;46.910;6.354;2023-07-02T04:30:11;21.75;17.75;12.00
76101;PMS7003;64830;46.910;6.354;2023-07-02T04:32:37;20.75;19.00;12.25
76101;PMS7003;64830;46.910;6.354;2023-07-02T04:35:06;15.00;13.25;9.50
76101;PMS7003;64830;46.910;6.354;2023-07-02T04:37:35;17.75;15.75;11.00
76101;PMS7003;64830;46.910;6.354;2023-07-02T04:40:01;15.00;12.00;9.50
76101;PMS7003;64830;46.910;6.354;2023-07-02T04:42:29;13.75;13.75;9.75
76101;PMS7003;64830;46.910;6.354;2023-07-02T04:44:56;17.25;13.50;9.00
76101;PMS7003;64830;46.910;6.354;2023-07-02T04:47:27;16.00;15.00;10.50
76101;PMS7003;64830;46.910;6.354;2023-07-02T04:49:52;12.25;11.25;8.25
76101;PMS7003;64830;46.910;6.354;2023-07-02T04:52:17;10.75;10.75;8.00
76101;PMS7003;64830;46.910;6.354;2023-07-02T04:54:43;17.50;13.50;8.50
76101;PMS7003;64830;46.910;6.354;2023-07-02T04:57:08;11.00;10.75;7.75
76101;PMS7003;64830;46.910;6.354;2023-07-02T04:59:33;11.75;9.25;6.00
76101;PMS7003;64830;46.910;6.354;2023-07-02T05:01:59;12.50;11.50;8.00
76101;PMS7003;64830;46.910;6.354;2023-07-02T05:04:24;9.50;8.50;6.00
76101;PMS7003;64830;46.910;6.354;2023-07-02T05:06:50;8.25;7.50;6.00
76101;PMS7003;64830;46.910;6.354;2023-07-02T05:09:15;5.50;4.00;3.00
76101;PMS7003;64830;46.910;6.354;2023-07-02T05:11:40;5.00;4.50;4.00
76101;PMS7003;64830;46.910;6.354;2023-07-02T05:14:06;7.75;5.75;4.75
76101;PMS7003;64830;46.910;6.354;2023-07-02T05:16:31;4.75;4.75;3.00
76101;PMS7003;64830;46.910;6.354;2023-07-02T05:18:56;5.50;5.50;4.00
76101;PMS7003;64830;46.910;6.354;2023-07-02T05:21:22;4.25;4.25;3.25
76101;PMS7003;64830;46.910;6.354;2023-07-02T05:23:47;4.00;3.00;2.25
76101;PMS7003;64830;46.910;6.354;2023-07-02T05:26:13;4.00;4.00;2.00
76101;PMS7003;64830;46.910;6.354;2023-07-02T05:28:39;6.25;5.75;4.00
76101;PMS7003;64830;46.910;6.354;2023-07-02T05:31:04;6.00;6.00;4.50
76101;PMS7003;64830;46.910;6.354;2023-07-02T05:33:29;7.00;6.00;4.00
76101;PMS7003;64830;46.910;6.354;2023-07-02T05:35:57;9.00;8.00;5.00
76101;PMS7003;64830;46.910;6.354;2023-07-02T05:38:22;5.00;5.00;4.00
76101;PMS7003;64830;46.910;6.354;2023-07-02T05:40:48;7.00;6.75;5.00
76101;PMS7003;64830;46.910;6.354;2023-07-02T05:43:13;10.25;10.00;7.00
76101;PMS7003;64830;46.910;6.354;2023-07-02T05:45:39;14.75;13.75;8.75
76101;PMS7003;64830;46.910;6.354;2023-07-02T05:48:04;13.75;11.25;7.75
76101;PMS7003;64830;46.910;6.354;2023-07-02T05:50:29;13.00;11.00;7.00
76101;PMS7003;64830;46.910;6.354;2023-07-02T05:52:55;17.50;12.50;7.75
76101;PMS7003;64830;46.910;6.354;2023-07-02T05:55:20;22.50;19.00;12.50
76101;PMS7003;64830;46.910;6.354;2023-07-02T05:57:46;17.75;13.75;10.00
76101;PMS7003;64830;46.910;6.354;2023-07-02T06:00:11;18.25;17.50;11.75
76101;PMS7003;64830;46.910;6.354;2023-07-02T06:02:37;17.50;15.75;11.25
76101;PMS7003;64830;46.910;6.354;2023-07-02T06:05:03;23.50;22.25;13.00
76101;PMS7003;64830;46.910;6.354;2023-07-02T06:07:29;25.25;24.00;13.75
76101;PMS7003;64830;46.910;6.354;2023-07-02T06:09:54;25.75;22.75;11.25
76101;PMS7003;64830;46.910;6.354;2023-07-02T06:12:20;24.00;22.50;14.75
76101;PMS7003;64830;46.910;6.354;2023-07-02T06:14:46;22.50;19.00;12.00
76101;PMS7003;64830;46.910;6.354;2023-07-02T06:17:12;15.75;15.00;12.50
76101;PMS7003;64830;46.910;6.354;2023-07-02T06:19:37;19.75;17.75;11.25
76101;PMS7003;64830;46.910;6.354;2023-07-02T06:22:03;26.75;23.75;15.50
76101;PMS7003;64830;46.910;6.354;2023-07-02T06:24:29;21.75;20.50;13.75
76101;PMS7003;64830;46.910;6.354;2023-07-02T06:26:54;23.25;21.00;12.50
76101;PMS7003;64830;46.910;6.354;2023-07-02T06:29:21;26.25;24.25;14.75
76101;PMS7003;64830;46.910;6.354;2023-07-02T06:31:47;26.50;23.75;14.50
76101;PMS7003;64830;46.910;6.354;2023-07-02T06:34:12;29.50;25.25;17.00
76101;PMS7003;64830;46.910;6.354;2023-07-02T06:36:38;26.50;25.00;15.00
76101;PMS7003;64830;46.910;6.354;2023-07-02T06:39:03;29.00;28.75;17.00
76101;PMS7003;64830;46.910;6.354;2023-07-02T06:41:28;32.00;29.50;15.25
76101;PMS7003;64830;46.910;6.354;2023-07-02T06:43:54;30.75;29.25;18.50
76101;PMS7003;64830;46.910;6.354;2023-07-02T06:46:19;29.00;27.50;16.25
76101;PMS7003;64830;46.910;6.354;2023-07-02T06:48:44;29.00;25.25;15.75
76101;PMS7003;64830;46.910;6.354;2023-07-02T06:51:10;27.25;26.25;17.75
76101;PMS7003;64830;46.910;6.354;2023-07-02T06:53:39;29.50;27.00;15.25
76101;PMS7003;64830;46.910;6.354;2023-07-02T06:56:05;32.25;28.25;18.25
76101;PMS7003;64830;46.910;6.354;2023-07-02T06:58:32;31.75;28.25;17.25
76101;PMS7003;64830;46.910;6.354;2023-07-02T07:00:58;32.75;30.00;19.00
76101;PMS7003;64830;46.910;6.354;2023-07-02T07:03:23;31.50;27.75;18.00
76101;PMS7003;64830;46.910;6.354;2023-07-02T07:05:49;36.25;31.00;16.00
76101;PMS7003;64830;46.910;6.354;2023-07-02T07:08:14;29.75;27.25;16.50
76101;PMS7003;64830;46.910;6.354;2023-07-02T07:10:40;29.25;26.25;16.00
76101;PMS7003;64830;46.910;6.354;2023-07-02T07:13:05;32.75;26.25;13.75
76101;PMS7003;64830;46.910;6.354;2023-07-02T07:15:32;24.50;23.00;14.00
76101;PMS7003;64830;46.910;6.354;2023-07-02T07:17:59;29.50;26.25;16.75
76101;PMS7003;64830;46.910;6.354;2023-07-02T07:20:25;28.75;24.50;14.50
76101;PMS7003;64830;46.910;6.354;2023-07-02T07:22:50;28.00;24.75;15.50
76101;PMS7003;64830;46.910;6.354;2023-07-02T07:25:16;26.00;24.00;16.00
76101;PMS7003;64830;46.910;6.354;2023-07-02T07:27:41;30.25;29.00;16.75
76101;PMS7003;64830;46.910;6.354;2023-07-02T07:30:06;28.75;25.50;15.75
76101;PMS7003;64830;46.910;6.354;2023-07-02T07:32:32;30.25;26.50;17.25
76101;PMS7003;64830;46.910;6.354;2023-07-02T07:34:57;27.00;26.00;15.75
76101;PMS7003;64830;46.910;6.354;2023-07-02T07:37:23;30.50;29.75;18.25
76101;PMS7003;64830;46.910;6.354;2023-07-02T07:39:50;32.00;28.00;14.75
76101;PMS7003;64830;46.910;6.354;2023-07-02T07:42:15;34.25;30.25;19.00
76101;PMS7003;64830;46.910;6.354;2023-07-02T07:44:41;34.00;29.00;18.75
76101;PMS7003;64830;46.910;6.354;2023-07-02T07:47:07;34.25;30.50;19.25
76101;PMS7003;64830;46.910;6.354;2023-07-02T07:49:33;36.25;29.50;17.25
76101;PMS7003;64830;46.910;6.354;2023-07-02T07:51:58;34.25;28.50;16.00
76101;PMS7003;64830;46.910;6.354;2023-07-02T07:54:23;38.50;33.00;19.00
76101;PMS7003;64830;46.910;6.354;2023-07-02T07:56:49;36.75;32.50;20.00
76101;PMS7003;64830;46.910;6.354;2023-07-02T07:59:15;32.50;28.75;15.50
76101;PMS7003;64830;46.910;6.354;2023-07-02T08:01:40;33.50;29.75;17.50
76101;PMS7003;64830;46.910;6.354;2023-07-02T08:04:06;40.25;34.00;21.00
76101;PMS7003;64830;46.910;6.354;2023-07-02T08:06:31;34.00;29.50;17.75
76101;PMS7003;64830;46.910;6.354;2023-07-02T08:08:57;35.25;32.50;20.00
76101;PMS7003;64830;46.910;6.354;2023-07-02T08:11:22;36.75;29.75;17.25
76101;PMS7003;64830;46.910;6.354;2023-07-02T08:13:48;36.00;31.00;17.00
76101;PMS7003;64830;46.910;6.354;2023-07-02T08:16:13;30.25;23.00;14.00
76101;PMS7003;64830;46.910;6.354;2023-07-02T08:18:38;29.00;27.25;17.75
76101;PMS7003;64830;46.910;6.354;2023-07-02T08:21:04;32.50;29.75;19.25
76101;PMS7003;64830;46.910;6.354;2023-07-02T08:23:31;32.75;28.50;18.00
76101;PMS7003;64830;46.910;6.354;2023-07-02T08:25:57;32.75;31.25;19.25
76101;PMS7003;64830;46.910;6.354;2023-07-02T08:28:22;30.00;27.00;17.75
76101;PMS7003;64830;46.910;6.354;2023-07-02T08:30:48;33.25;31.00;18.25
76101;PMS7003;64830;46.910;6.354;2023-07-02T08:33:13;29.25;25.75;16.00
76101;PMS7003;64830;46.910;6.354;2023-07-02T08:35:38;27.00;27.00;16.75
76101;PMS7003;64830;46.910;6.354;2023-07-02T08:38:04;28.25;25.25;14.25
76101;PMS7003;64830;46.910;6.354;2023-07-02T08:40:29;27.25;25.25;15.25
76101;PMS7003;64830;46.910;6.354;2023-07-02T08:42:55;28.75;25.00;15.50
76101;PMS7003;64830;46.910;6.354;2023-07-02T08:52:46;26.50;24.75;14.25
76101;PMS7003;64830;46.910;6.354;2023-07-02T08:55:11;27.75;25.50;17.00
76101;PMS7003;64830;46.910;6.354;2023-07-02T08:57:37;27.25;25.00;13.75
76101;PMS7003;64830;46.910;6.354;2023-07-02T09:00:07;26.25;23.00;16.00
76101;PMS7003;64830;46.910;6.354;2023-07-02T09:02:34;28.25;24.50;15.00
76101;PMS7003;64830;46.910;6.354;2023-07-02T09:05:03;21.00;19.50;11.75
76101;PMS7003;64830;46.910;6.354;2023-07-02T09:07:29;26.50;24.25;13.75
76101;PMS7003;64830;46.910;6.354;2023-07-02T09:09:55;21.75;21.25;12.00
76101;PMS7003;64830;46.910;6.354;2023-07-02T09:12:27;19.00;18.25;11.25
76101;PMS7003;64830;46.910;6.354;2023-07-02T09:14:54;20.25;18.75;11.75
76101;PMS7003;64830;46.910;6.354;2023-07-02T09:17:32;18.50;16.75;12.00
76101;PMS7003;64830;46.910;6.354;2023-07-02T09:20:00;15.00;14.25;11.25
76101;PMS7003;64830;46.910;6.354;2023-07-02T09:22:27;18.75;17.25;10.50
76101;PMS7003;64830;46.910;6.354;2023-07-02T09:24:57;19.50;19.00;12.00
76101;PMS7003;64830;46.910;6.354;2023-07-02T09:27:36;20.50;20.25;12.75
76101;PMS7003;64830;46.910;6.354;2023-07-02T09:30:09;22.00;20.50;12.00
76101;PMS7003;64830;46.910;6.354;2023-07-02T09:32:38;20.00;18.00;12.75
76101;PMS7003;64830;46.910;6.354;2023-07-02T09:35:04;18.00;17.50;11.50
76101;PMS7003;64830;46.910;6.354;2023-07-02T09:37:30;17.00;15.75;10.50
76101;PMS7003;64830;46.910;6.354;2023-07-02T09:39:55;13.75;13.75;10.00
76101;PMS7003;64830;46.910;6.354;2023-07-02T09:42:21;18.00;17.00;10.75
76101;PMS7003;64830;46.910;6.354;2023-07-02T09:44:47;14.50;13.75;9.25
76101;PMS7003;64830;46.910;6.354;2023-07-02T09:47:17;18.00;16.75;11.25
76101;PMS7003;64830;46.910;6.354;2023-07-02T09:50:16;12.25;11.50;8.75
76101;PMS7003;64830;46.910;6.354;2023-07-02T09:52:36;7.50;6.00;5.00
76101;PMS7003;64830;46.910;6.354;2023-07-02T09:55:02;14.75;13.50;9.50
76101;PMS7003;64830;46.910;6.354;2023-07-02T09:57:29;15.75;15.75;10.75
76101;PMS7003;64830;46.910;6.354;2023-07-02T09:59:56;14.00;11.00;9.00
76101;PMS7003;64830;46.910;6.354;2023-07-02T10:02:23;11.75;11.75;8.00
76101;PMS7003;64830;46.910;6.354;2023-07-02T10:04:49;13.50;11.50;8.25
76101;PMS7003;64830;46.910;6.354;2023-07-02T10:07:26;11.50;10.25;7.00
76101;PMS7003;64830;46.910;6.354;2023-07-02T10:09:53;10.00;10.00;7.00
76101;PMS7003;64830;46.910;6.354;2023-07-02T10:12:19;13.75;10.75;6.75
76101;PMS7003;64830;46.910;6.354;2023-07-02T10:14:46;11.75;11.50;7.00
76101;PMS7003;64830;46.910;6.354;2023-07-02T10:17:25;8.50;8.00;5.75
76101;PMS7003;64830;46.910;6.354;2023-07-02T10:19:58;5.50;4.75;3.00
76101;PMS7003;64830;46.910;6.354;2023-07-02T10:22:25;7.50;7.50;5.25
76101;PMS7003;64830;46.910;6.354;2023-07-02T10:24:55;9.00;9.00;6.00
76101;PMS7003;64830;46.910;6.354;2023-07-02T10:27:34;12.00;10.00;7.75
76101;PMS7003;64830;46.910;6.354;2023-07-02T10:30:00;5.50;4.50;2.00
76101;PMS7003;64830;46.910;6.354;2023-07-02T10:32:28;13.00;10.75;8.00
76101;PMS7003;64830;46.910;6.354;2023-07-02T10:34:54;11.00;9.50;7.00
76101;PMS7003;64830;46.910;6.354;2023-07-02T10:37:19;7.75;7.75;5.50
76101;PMS7003;64830;46.910;6.354;2023-07-02T10:39:45;8.00;8.00;6.00
76101;PMS7003;64830;46.910;6.354;2023-07-02T10:42:11;4.50;4.00;3.25
76101;PMS7003;64830;46.910;6.354;2023-07-02T10:44:51;4.50;3.50;3.00
76101;PMS7003;64830;46.910;6.354;2023-07-02T10:47:18;5.25;4.00;3.00
76101;PMS7003;64830;46.910;6.354;2023-07-02T10:49:44;6.75;5.00;4.00
76101;PMS7003;64830;46.910;6.354;2023-07-02T10:52:10;3.50;3.50;3.00
76101;PMS7003;64830;46.910;6.354;2023-07-02T10:54:53;4.00;4.00;3.25
76101;PMS7003;64830;46.910;6.354;2023-07-02T10:57:18;4.75;4.75;3.00
76101;PMS7003;64830;46.910;6.354;2023-07-02T10:59:48;6.00;5.25;3.25
76101;PMS7003;64830;46.910;6.354;2023-07-02T11:02:14;5.00;5.00;3.00
76101;PMS7003;64830;46.910;6.354;2023-07-02T11:04:40;6.00;4.25;3.25
76101;PMS7003;64830;46.910;6.354;2023-07-02T11:07:06;4.00;3.00;2.00
76101;PMS7003;64830;46.910;6.354;2023-07-02T11:09:31;6.00;6.00;5.00
76101;PMS7003;64830;46.910;6.354;2023-07-02T11:11:58;8.25;8.25;5.75
76101;PMS7003;64830;46.910;6.354;2023-07-02T11:16:53;10.50;9.00;6.75
76101;PMS7003;64830;46.910;6.354;2023-07-02T11:19:20;11.00;9.50;6.00
76101;PMS7003;64830;46.910;6.354;2023-07-02T11:21:53;10.00;10.00;6.50
76101;PMS7003;64830;46.910;6.354;2023-07-02T11:24:26;11.25;11.00;7.50
76101;PMS7003;64830;46.910;6.354;2023-07-02T11:26:54;12.00;11.25;6.25
76101;PMS7003;64830;46.910;6.354;2023-07-02T11:29:19;11.25;10.25;6.25
76101;PMS7003;64830;46.910;6.354;2023-07-02T11:31:45;10.25;10.25;6.25
76101;PMS7003;64830;46.910;6.354;2023-07-02T11:34:11;10.25;10.25;6.50
76101;PMS7003;64830;46.910;6.354;2023-07-02T11:36:43;11.25;8.75;6.75
76101;PMS7003;64830;46.910;6.354;2023-07-02T11:39:09;9.00;9.00;5.50
76101;PMS7003;64830;46.910;6.354;2023-07-02T11:41:41;16.00;10.00;7.50
76101;PMS7003;64830;46.910;6.354;2023-07-02T11:44:08;13.00;11.75;8.75
76101;PMS7003;64830;46.910;6.354;2023-07-02T11:46:34;10.50;10.50;7.50
76101;PMS7003;64830;46.910;6.354;2023-07-02T11:49:00;12.25;11.00;8.00
76101;PMS7003;64830;46.910;6.354;2023-07-02T11:51:26;10.75;10.50;8.50
76101;PMS7003;64830;46.910;6.354;2023-07-02T11:53:52;12.50;11.75;8.00
76101;PMS7003;64830;46.910;6.354;2023-07-02T11:56:17;13.00;13.00;9.50
76101;PMS7003;64830;46.910;6.354;2023-07-02T11:58:43;12.25;12.00;7.00
76101;PMS7003;64830;46.910;6.354;2023-07-02T12:01:08;13.00;12.25;9.00
76101;PMS7003;64830;46.910;6.354;2023-07-02T12:03:34;12.75;12.25;8.00
76101;PMS7003;64830;46.910;6.354;2023-07-02T12:05:59;14.75;11.00;8.00
76101;PMS7003;64830;46.910;6.354;2023-07-02T12:08:25;12.50;12.50;9.50
76101;PMS7003;64830;46.910;6.354;2023-07-02T12:10:50;14.00;12.00;8.25
76101;PMS7003;64830;46.910;6.354;2023-07-02T12:13:15;12.75;12.00;8.50
76101;PMS7003;64830;46.910;6.354;2023-07-02T12:15:41;9.25;9.25;5.00
76101;PMS7003;64830;46.910;6.354;2023-07-02T12:18:06;10.25;10.25;6.50
76101;PMS7003;64830;46.910;6.354;2023-07-02T12:20:33;9.75;9.50;7.25
76101;PMS7003;64830;46.910;6.354;2023-07-02T12:22:58;10.25;9.25;6.00
76101;PMS7003;64830;46.910;6.354;2023-07-02T12:25:24;13.00;12.50;8.50
76101;PMS7003;64830;46.910;6.354;2023-07-02T12:27:49;8.25;8.25;6.50
76101;PMS7003;64830;46.910;6.354;2023-07-02T12:30:14;8.75;8.50;6.50
76101;PMS7003;64830;46.910;6.354;2023-07-02T12:32:42;8.75;8.75;6.25
76101;PMS7003;64830;46.910;6.354;2023-07-02T12:35:08;11.50;9.75;7.25
76101;PMS7003;64830;46.910;6.354;2023-07-02T12:37:34;11.50;8.00;6.00
76101;PMS7003;64830;46.910;6.354;2023-07-02T12:39:59;15.00;13.00;8.75
76101;PMS7003;64830;46.910;6.354;2023-07-02T12:42:25;15.75;13.50;9.00
76101;PMS7003;64830;46.910;6.354;2023-07-02T12:44:50;14.50;14.25;9.00
76101;PMS7003;64830;46.910;6.354;2023-07-02T12:47:16;14.00;13.75;8.75
76101;PMS7003;64830;46.910;6.354;2023-07-02T12:49:41;14.50;14.50;9.25
76101;PMS7003;64830;46.910;6.354;2023-07-02T12:52:07;19.50;18.00;12.50
76101;PMS7003;64830;46.910;6.354;2023-07-02T12:54:32;18.00;16.50;11.50
76101;PMS7003;64830;46.910;6.354;2023-07-02T12:56:57;18.25;17.75;11.75
76101;PMS7003;64830;46.910;6.354;2023-07-02T12:59:23;18.50;17.75;12.00
76101;PMS7003;64830;46.910;6.354;2023-07-02T13:01:48;20.25;18.75;12.50
76101;PMS7003;64830;46.910;6.354;2023-07-02T13:04:13;16.00;16.00;10.25
76101;PMS7003;64830;46.910;6.354;2023-07-02T13:06:40;18.50;15.75;11.50
76101;PMS7003;64830;46.910;6.354;2023-07-02T13:09:06;16.00;14.50;9.50
76101;PMS7003;64830;46.910;6.354;2023-07-02T13:11:32;18.25;15.25;9.00
76101;PMS7003;64830;46.910;6.354;2023-07-02T13:13:57;21.00;16.75;11.25
76101;PMS7003;64830;46.910;6.354;2023-07-02T13:16:23;18.25;15.25;10.25
76101;PMS7003;64830;46.910;6.354;2023-07-02T13:18:49;16.00;16.00;11.50
76101;PMS7003;64830;46.910;6.354;2023-07-02T13:21:14;21.00;18.75;11.25
76101;PMS7003;64830;46.910;6.354;2023-07-02T13:23:40;22.75;21.25;14.00
76101;PMS7003;64830;46.910;6.354;2023-07-02T13:26:05;16.25;13.50;9.75
76101;PMS7003;64830;46.910;6.354;2023-07-02T13:28:31;18.25;15.00;10.75
76101;PMS7003;64830;46.910;6.354;2023-07-02T13:30:56;14.50;12.75;8.00
76101;PMS7003;64830;46.910;6.354;2023-07-02T13:33:22;17.75;15.25;10.75
76101;PMS7003;64830;46.910;6.354;2023-07-02T13:35:47;19.75;18.25;11.00
76101;PMS7003;64830;46.910;6.354;2023-07-02T13:38:13;16.50;12.75;9.50
76101;PMS7003;64830;46.910;6.354;2023-07-02T13:40:38;19.50;16.75;9.75
76101;PMS7003;64830;46.910;6.354;2023-07-02T13:43:04;9.50;8.25;7.25
76101;PMS7003;64830;46.910;6.354;2023-07-02T13:45:29;20.00;15.75;10.25
76101;PMS7003;64830;46.910;6.354;2023-07-02T13:47:55;17.00;16.00;10.25
76101;PMS7003;64830;46.910;6.354;2023-07-02T13:50:20;23.50;21.50;13.00
76101;PMS7003;64830;46.910;6.354;2023-07-02T13:52:46;25.75;20.75;12.25
76101;PMS7003;64830;46.910;6.354;2023-07-02T13:55:11;16.00;14.25;7.50
76101;PMS7003;64830;46.910;6.354;2023-07-02T13:57:37;19.75;18.50;13.00
76101;PMS7003;64830;46.910;6.354;2023-07-02T14:00:03;18.75;17.00;8.50
76101;PMS7003;64830;46.910;6.354;2023-07-02T14:02:29;19.50;17.50;9.75